Time,TemperatureF,DewpointF,PressureIn,WindDirection,WindDirectionDegrees,WindSpeedMPH,WindSpeedGustMPH,Humidity,HourlyPrecipIn,Conditions,Clouds,dailyrainin,SoftwareType,DateUTC
2013-01-09 00:00:00,60.5,60.5,30.17,NW,326,0.0,0.0,100,0.00,,---,0.05,VWS V14.01,2013-01-09 05:00:00,
2013-01-09 00:01:00,60.5,60.5,30.17,NW,326,0.0,0.0,100,0.00,,---,0.00,VWS V14.01,2013-01-09 05:01:00,
2013-01-09 00:03:00,60.5,60.5,30.17,NW,326,0.0,0.0,100,0.00,,---,0.00,VWS V14.01,2013-01-09 05:03:00,
2013-01-09 00:08:00,60.5,60.5,30.17,NW,326,0.0,0.0,100,0.00,,---,0.00,VWS V14.01,2013-01-09 05:08:00,
2013-01-09 00:13:00,60.5,60.5,30.17,NW,326,0.0,0.0,100,0.00,,---,0.00,VWS V14.01,2013-01-09 05:13:00,
2013-01-09 00:18:00,60.5,60.5,30.17,NW,326,0.0,0.0,100,0.00,,---,0.00,VWS V14.01,2013-01-09 05:18:00,
2013-01-09 00:23:00,60.7,60.7,30.17,NW,326,0.0,0.0,100,0.00,,---,0.00,VWS V14.01,2013-01-09 05:23:00,
2013-01-09 00:28:00,60.7,60.7,30.17,NW,326,0.0,0.0,100,0.00,,---,0.00,VWS V14.01,2013-01-09 05:28:00,
2013-01-09 00:30:00,60.7,60.7,30.16,NW,326,0.0,0.0,100,0.00,,---,0.00,VWS V14.01,2013-01-09 05:30:00,
2013-01-09 00:33:00,60.7,60.7,30.16,NW,326,0.0,0.0,100,0.00,,---,0.00,VWS V14.01,2013-01-09 05:33:00,
2013-01-09 00:38:00,60.9,60.9,30.16,NW,326,0.0,0.0,100,0.00,,---,0.00,VWS V14.01,2013-01-09 05:38:00,
2013-01-09 00:43:00,61.2,61.2,30.16,NW,326,0.0,0.0,100,0.00,,---,0.00,VWS V14.01,2013-01-09 05:43:00,
2013-01-09 00:48:00,61.5,61.5,30.17,NW,326,0.0,0.0,100,0.00,,---,0.00,VWS V14.01,2013-01-09 05:48:00,
2013-01-09 00:53:00,61.6,61.6,30.17,NW,326,0.0,0.0,100,0.00,,---,0.00,VWS V14.01,2013-01-09 05:53:00,
2013-01-09 00:58:00,61.8,61.8,30.17,NW,326,0.0,0.0,100,0.00,,---,0.00,VWS V14.01,2013-01-09 05:58:00,
2013-01-09 01:00:00,61.8,61.8,30.17,NW,326,0.0,0.0,100,0.00,,---,0.00,VWS V14.01,2013-01-09 06:00:00,
2013-01-09 01:03:00,61.6,61.6,30.17,NW,326,0.0,0.0,100,0.00,,---,0.00,VWS V14.01,2013-01-09 06:03:00,
2013-01-09 01:08:00,61.5,61.5,30.17,NW,326,0.0,0.0,100,0.00,,---,0.00,VWS V14.01,2013-01-09 06:08:00,
2013-01-09 01:13:00,61.3,61.3,30.17,NW,326,0.0,0.0,100,0.00,,---,0.00,VWS V14.01,2013-01-09 06:13:00,
2013-01-09 01:18:00,61.3,61.3,30.17,NW,326,0.0,0.0,100,0.00,,---,0.00,VWS V14.01,2013-01-09 06:18:00,
2013-01-09 01:23:00,61.2,61.2,30.17,NW,326,0.0,0.0,100,0.00,,---,0.00,VWS V14.01,2013-01-09 06:23:00,
2013-01-09 01:28:00,61.2,61.2,30.17,NW,326,0.0,0.0,100,0.00,,---,0.00,VWS V14.01,2013-01-09 06:28:00,
2013-01-09 01:30:00,61.2,61.2,30.17,NW,326,0.0,0.0,100,0.00,,---,0.00,VWS V14.01,2013-01-09 06:30:00,
2013-01-09 01:33:00,61.2,61.2,30.17,NW,326,0.0,0.0,100,0.00,,---,0.00,VWS V14.01,2013-01-09 06:33:00,
2013-01-09 01:38:00,61.3,61.3,30.17,NW,326,0.0,0.0,100,0.00,,---,0.00,VWS V14.01,2013-01-09 06:38:00,
2013-01-09 01:43:00,61.3,61.3,30.17,NW,326,0.0,0.0,100,0.00,,---,0.00,VWS V14.01,2013-01-09 06:43:00,
2013-01-09 01:48:00,61.5,61.5,30.17,NW,326,0.0,0.0,100,0.00,,---,0.00,VWS V14.01,2013-01-09 06:48:00,
2013-01-09 01:53:00,61.5,61.5,30.17,NW,326,0.0,1.0,100,0.00,,---,0.00,VWS V14.01,2013-01-09 06:53:00,
2013-01-09 01:58:00,61.6,61.6,30.17,NW,326,0.0,1.0,100,0.00,,---,0.00,VWS V14.01,2013-01-09 06:58:00,
2013-01-09 02:00:00,61.5,61.5,30.17,NW,326,0.0,1.0,100,0.00,,---,0.00,VWS V14.01,2013-01-09 07:00:00,
2013-01-09 02:02:00,61.5,61.5,30.17,NW,326,0.0,0.0,100,0.00,,---,0.00,VWS V14.01,2013-01-09 07:02:00,
2013-01-09 02:07:00,61.3,61.3,30.17,NW,326,0.0,0.0,100,0.00,,---,0.00,VWS V14.01,2013-01-09 07:07:00,
2013-01-09 02:12:00,61.2,61.2,30.17,NW,326,0.0,0.0,100,0.00,,---,0.00,VWS V14.01,2013-01-09 07:12:00,
2013-01-09 02:17:00,61.0,61.0,30.17,NW,326,0.0,0.0,100,0.00,,---,0.00,VWS V14.01,2013-01-09 07:17:00,
2013-01-09 02:22:00,60.9,60.9,30.17,NW,326,0.0,0.0,100,0.00,,---,0.00,VWS V14.01,2013-01-09 07:22:00,
2013-01-09 02:27:00,60.9,60.9,30.17,NW,326,0.0,0.0,100,0.00,,---,0.00,VWS V14.01,2013-01-09 07:27:00,
2013-01-09 02:30:00,60.7,60.7,30.17,NW,326,0.0,0.0,100,0.00,,---,0.00,VWS V14.01,2013-01-09 07:30:00,
2013-01-09 02:32:00,60.7,60.7,30.17,NW,326,0.0,0.0,100,0.00,,---,0.00,VWS V14.01,2013-01-09 07:32:00,
2013-01-09 02:37:00,60.7,60.7,30.17,NW,326,0.0,0.0,100,0.00,,---,0.00,VWS V14.01,2013-01-09 07:37:00,
2013-01-09 02:42:00,60.5,60.5,30.17,NW,326,0.0,1.0,100,0.00,,---,0.00,VWS V14.01,2013-01-09 07:42:00,
2013-01-09 02:47:00,60.4,60.4,30.17,NW,326,0.0,1.0,100,0.00,,---,0.00,VWS V14.01,2013-01-09 07:47:00,
2013-01-09 02:52:00,60.4,60.4,30.17,NW,326,0.0,1.0,100,0.00,,---,0.00,VWS V14.01,2013-01-09 07:52:00,
2013-01-09 02:57:00,60.2,60.2,30.17,NW,326,0.0,1.0,100,0.00,,---,0.00,VWS V14.01,2013-01-09 07:57:00,
2013-01-09 03:00:00,60.2,60.2,30.17,NW,326,0.0,1.0,100,0.00,,---,0.00,VWS V14.01,2013-01-09 08:00:00,
2013-01-09 03:02:00,60.2,60.2,30.17,NW,326,0.0,0.0,100,0.00,,---,0.00,VWS V14.01,2013-01-09 08:02:00,
2013-01-09 03:07:00,60.2,60.2,30.17,NW,326,0.0,0.0,100,0.00,,---,0.00,VWS V14.01,2013-01-09 08:07:00,
2013-01-09 03:12:00,60.1,60.1,30.17,NW,326,0.0,1.0,100,0.00,,---,0.00,VWS V14.01,2013-01-09 08:12:00,
2013-01-09 03:17:00,60.1,60.1,30.16,NW,326,0.0,1.0,100,0.00,,---,0.00,VWS V14.01,2013-01-09 08:17:00,
2013-01-09 03:22:00,59.9,59.9,30.16,NW,326,0.0,1.0,100,0.00,,---,0.00,VWS V14.01,2013-01-09 08:22:00,
2013-01-09 03:27:00,59.9,59.9,30.16,NW,326,0.0,1.0,100,0.00,,---,0.00,VWS V14.01,2013-01-09 08:27:00,
2013-01-09 03:30:00,59.8,59.8,30.16,NW,326,0.0,1.0,100,0.00,,---,0.00,VWS V14.01,2013-01-09 08:30:00,
2013-01-09 03:32:00,59.8,59.8,30.16,NW,326,0.0,0.0,100,0.00,,---,0.00,VWS V14.01,2013-01-09 08:32:00,
2013-01-09 03:37:00,59.5,59.5,30.16,NW,326,0.0,0.0,100,0.00,,---,0.00,VWS V14.01,2013-01-09 08:37:00,
2013-01-09 03:42:00,59.3,59.3,30.16,NW,326,0.0,1.0,100,0.00,,---,0.00,VWS V14.01,2013-01-09 08:42:00,
2013-01-09 03:47:00,59.3,59.3,30.16,NW,326,0.0,1.0,100,0.00,,---,0.00,VWS V14.01,2013-01-09 08:47:00,
2013-01-09 03:52:00,59.2,59.2,30.16,NW,326,0.0,1.0,100,0.00,,---,0.00,VWS V14.01,2013-01-09 08:52:00,
2013-01-09 03:57:00,59.2,59.2,30.16,NW,326,0.0,1.0,100,0.00,,---,0.00,VWS V14.01,2013-01-09 08:57:00,
2013-01-09 04:00:00,59.2,59.2,30.16,NW,326,0.0,1.0,100,0.00,,---,0.00,VWS V14.01,2013-01-09 09:00:00,
2013-01-09 04:02:00,59.2,59.2,30.16,NW,326,0.0,0.0,100,0.00,,---,0.00,VWS V14.01,2013-01-09 09:02:00,
2013-01-09 04:07:00,59.2,59.2,30.16,NW,326,0.0,0.0,100,0.00,,---,0.00,VWS V14.01,2013-01-09 09:07:00,
2013-01-09 04:12:00,59.2,59.2,30.16,NW,326,0.0,0.0,100,0.00,,---,0.00,VWS V14.01,2013-01-09 09:12:00,
2013-01-09 04:17:00,59.2,59.2,30.16,NW,326,0.0,0.0,100,0.00,,---,0.00,VWS V14.01,2013-01-09 09:17:00,
2013-01-09 04:22:00,59.2,59.2,30.16,NW,326,0.0,0.0,100,0.00,,---,0.00,VWS V14.01,2013-01-09 09:22:00,
2013-01-09 04:27:00,59.3,59.3,30.16,NW,326,0.0,0.0,100,0.00,,---,0.00,VWS V14.01,2013-01-09 09:27:00,
2013-01-09 04:30:00,59.3,59.3,30.16,NW,326,0.0,0.0,100,0.00,,---,0.00,VWS V14.01,2013-01-09 09:30:00,
2013-01-09 04:32:00,59.3,59.3,30.16,NW,326,0.0,0.0,100,0.00,,---,0.00,VWS V14.01,2013-01-09 09:32:00,
2013-01-09 04:37:00,59.3,59.3,30.16,NW,326,0.0,0.0,100,0.00,,---,0.00,VWS V14.01,2013-01-09 09:37:00,
2013-01-09 04:42:00,59.5,59.5,30.16,NW,326,0.0,0.0,100,0.00,,---,0.00,VWS V14.01,2013-01-09 09:42:00,
2013-01-09 04:47:00,59.5,59.5,30.16,NW,326,0.0,0.0,100,0.00,,---,0.00,VWS V14.01,2013-01-09 09:47:00,
2013-01-09 04:52:00,59.6,59.6,30.16,NW,326,0.0,0.0,100,0.00,,---,0.00,VWS V14.01,2013-01-09 09:52:00,
2013-01-09 04:57:00,59.6,59.6,30.16,NW,326,0.0,0.0,100,0.00,,---,0.00,VWS V14.01,2013-01-09 09:57:00,
2013-01-09 05:00:00,59.6,59.6,30.16,NW,326,0.0,0.0,100,0.00,,---,0.00,VWS V14.01,2013-01-09 10:00:00,
2013-01-09 05:02:00,59.6,59.6,30.16,NW,326,0.0,0.0,100,0.00,,---,0.00,VWS V14.01,2013-01-09 10:02:00,
2013-01-09 05:07:00,59.6,59.6,30.16,NW,326,0.0,0.0,100,0.00,,---,0.00,VWS V14.01,2013-01-09 10:07:00,
2013-01-09 05:12:00,59.6,59.6,30.16,NW,326,0.0,0.0,100,0.00,,---,0.00,VWS V14.01,2013-01-09 10:12:00,
2013-01-09 05:17:00,59.6,59.6,30.17,NW,326,0.0,0.0,100,0.00,,---,0.00,VWS V14.01,2013-01-09 10:17:00,
2013-01-09 05:22:00,59.6,59.6,30.17,NW,326,0.0,0.0,100,0.00,,---,0.00,VWS V14.01,2013-01-09 10:22:00,
2013-01-09 05:27:00,59.5,59.5,30.17,NW,326,0.0,0.0,100,0.00,,---,0.00,VWS V14.01,2013-01-09 10:27:00,
2013-01-09 05:30:00,59.5,59.5,30.17,NW,326,0.0,0.0,100,0.00,,---,0.00,VWS V14.01,2013-01-09 10:30:00,
2013-01-09 05:32:00,59.3,59.3,30.17,NW,326,0.0,0.0,100,0.00,,---,0.00,VWS V14.01,2013-01-09 10:32:00,
2013-01-09 05:37:00,59.3,59.3,30.17,NW,326,0.0,0.0,100,0.00,,---,0.00,VWS V14.01,2013-01-09 10:37:00,
2013-01-09 05:42:00,59.3,59.3,30.17,NW,326,0.0,0.0,100,0.00,,---,0.00,VWS V14.01,2013-01-09 10:42:00,
2013-01-09 05:47:00,59.3,59.3,30.17,NW,326,0.0,0.0,100,0.00,,---,0.00,VWS V14.01,2013-01-09 10:47:00,
2013-01-09 05:52:00,59.3,59.3,30.17,NW,326,0.0,0.0,100,0.00,,---,0.00,VWS V14.01,2013-01-09 10:52:00,
2013-01-09 05:57:00,59.3,59.3,30.17,NW,326,0.0,1.0,100,0.00,,---,0.00,VWS V14.01,2013-01-09 10:57:00,
2013-01-09 06:00:00,59.3,59.3,30.17,NW,326,0.0,1.0,100,0.00,,---,0.00,VWS V14.01,2013-01-09 11:00:00,
2013-01-09 06:02:00,59.3,59.3,30.17,NW,326,0.0,0.0,100,0.00,,---,0.00,VWS V14.01,2013-01-09 11:02:00,
2013-01-09 06:07:00,59.2,59.2,30.17,NW,326,0.0,0.0,100,0.00,,---,0.00,VWS V14.01,2013-01-09 11:07:00,
2013-01-09 06:12:00,59.2,59.2,30.17,NW,326,0.0,0.0,100,0.00,,---,0.00,VWS V14.01,2013-01-09 11:12:00,
2013-01-09 06:17:00,59.2,59.2,30.17,NW,326,0.0,0.0,100,0.00,,---,0.00,VWS V14.01,2013-01-09 11:17:00,
2013-01-09 06:22:00,59.2,59.2,30.17,NW,326,0.0,0.0,100,0.00,,---,0.00,VWS V14.01,2013-01-09 11:22:00,
2013-01-09 06:27:00,59.0,59.0,30.17,NW,326,0.0,0.0,100,0.00,,---,0.00,VWS V14.01,2013-01-09 11:27:00,
2013-01-09 06:30:00,59.0,59.0,30.18,NW,326,0.0,0.0,100,0.00,,---,0.00,VWS V14.01,2013-01-09 11:30:00,
2013-01-09 06:32:00,59.0,59.0,30.18,NW,326,0.0,0.0,100,0.00,,---,0.00,VWS V14.01,2013-01-09 11:32:00,
2013-01-09 06:37:00,59.0,59.0,30.18,NW,326,0.0,0.0,100,0.00,,---,0.00,VWS V14.01,2013-01-09 11:37:00,
2013-01-09 06:42:00,59.0,59.0,30.18,NW,326,0.0,0.0,100,0.00,,---,0.00,VWS V14.01,2013-01-09 11:42:00,
2013-01-09 06:47:00,59.0,59.0,30.19,NW,326,0.0,0.0,100,0.00,,---,0.00,VWS V14.01,2013-01-09 11:47:00,
2013-01-09 06:52:00,59.0,59.0,30.19,NW,326,0.0,0.0,100,0.00,,---,0.00,VWS V14.01,2013-01-09 11:52:00,
2013-01-09 06:57:00,59.0,59.0,30.19,NW,326,0.0,0.0,100,0.00,,---,0.00,VWS V14.01,2013-01-09 11:57:00,
2013-01-09 07:00:00,59.5,59.5,30.23,NW,326,0.0,0.0,100,0.00,,---,0.00,VWS V14.01,2013-01-09 12:00:00,
2013-01-09 07:02:00,59.0,59.0,30.19,NW,326,0.0,0.0,100,0.00,,---,0.00,VWS V14.01,2013-01-09 12:02:00,
2013-01-09 07:07:00,59.0,59.0,30.19,NW,326,0.0,0.0,100,0.00,,---,0.00,VWS V14.01,2013-01-09 12:07:00,
2013-01-09 07:12:00,59.2,59.2,30.19,NW,326,0.0,0.0,100,0.00,,---,0.00,VWS V14.01,2013-01-09 12:12:00,
2013-01-09 07:17:00,59.2,59.2,30.20,NW,326,0.0,0.0,100,0.00,,---,0.00,VWS V14.01,2013-01-09 12:17:00,
2013-01-09 07:22:00,59.2,59.2,30.20,NW,326,0.0,0.0,100,0.00,,---,0.00,VWS V14.01,2013-01-09 12:22:00,
2013-01-09 07:27:00,59.2,59.2,30.20,NW,326,0.0,0.0,100,0.00,,---,0.00,VWS V14.01,2013-01-09 12:27:00,
2013-01-09 07:30:00,59.3,59.3,30.21,NW,326,0.0,0.0,100,0.00,,---,0.00,VWS V14.01,2013-01-09 12:30:00,
2013-01-09 07:32:00,59.3,59.3,30.21,NW,326,0.0,0.0,100,0.00,,---,0.00,VWS V14.01,2013-01-09 12:32:00,
2013-01-09 07:37:00,59.3,59.3,30.21,NW,326,0.0,0.0,100,0.00,,---,0.00,VWS V14.01,2013-01-09 12:37:00,
2013-01-09 07:42:00,59.3,59.3,30.21,NW,326,0.0,0.0,100,0.00,,---,0.00,VWS V14.01,2013-01-09 12:42:00,
2013-01-09 07:47:00,59.3,59.3,30.22,NW,326,0.0,0.0,100,0.00,,---,0.00,VWS V14.01,2013-01-09 12:47:00,
2013-01-09 07:52:00,59.5,59.5,30.22,NW,326,0.0,0.0,100,0.00,,---,0.00,VWS V14.01,2013-01-09 12:52:00,
2013-01-09 07:57:00,59.5,59.5,30.22,NW,326,0.0,0.0,100,0.00,,---,0.00,VWS V14.01,2013-01-09 12:57:00,
2013-01-09 08:00:00,59.5,59.5,30.23,NW,326,0.0,0.0,100,0.00,,---,0.00,VWS V14.01,2013-01-09 13:00:00,
2013-01-09 08:02:00,59.5,59.5,30.23,NW,326,0.0,0.0,100,0.00,,---,0.00,VWS V14.01,2013-01-09 13:02:00,
2013-01-09 08:07:00,59.6,59.6,30.23,NW,326,0.0,0.0,100,0.00,,---,0.00,VWS V14.01,2013-01-09 13:07:00,
2013-01-09 08:12:00,59.6,59.6,30.23,NW,326,0.0,0.0,100,0.00,,---,0.00,VWS V14.01,2013-01-09 13:12:00,
2013-01-09 08:17:00,59.6,59.6,30.23,NW,326,0.0,0.0,100,0.00,,---,0.00,VWS V14.01,2013-01-09 13:17:00,
2013-01-09 08:22:00,59.8,59.8,30.23,NW,326,0.0,1.0,100,0.00,,---,0.00,VWS V14.01,2013-01-09 13:22:00,
2013-01-09 08:27:00,59.8,59.8,30.23,NW,326,0.0,1.0,100,0.00,,---,0.00,VWS V14.01,2013-01-09 13:27:00,
2013-01-09 08:30:00,59.9,59.9,30.23,NW,326,0.0,1.0,100,0.00,,---,0.00,VWS V14.01,2013-01-09 13:30:00,
2013-01-09 08:32:00,59.9,59.9,30.23,NW,326,0.0,0.0,100,0.00,,---,0.00,VWS V14.01,2013-01-09 13:32:00,
2013-01-09 08:37:00,60.1,60.1,30.23,NW,326,0.0,0.0,100,0.00,,---,0.00,VWS V14.01,2013-01-09 13:37:00,
2013-01-09 08:42:00,60.1,60.1,30.23,NW,326,0.0,0.0,100,0.00,,---,0.00,VWS V14.01,2013-01-09 13:42:00,
2013-01-09 08:47:00,60.1,60.1,30.24,NW,326,0.0,0.0,100,0.00,,---,0.00,VWS V14.01,2013-01-09 13:47:00,
2013-01-09 08:52:00,60.1,60.1,30.24,NW,326,0.0,0.0,100,0.00,,---,0.00,VWS V14.01,2013-01-09 13:52:00,
2013-01-09 08:57:00,60.2,60.2,30.24,NW,326,0.0,0.0,100,0.00,,---,0.00,VWS V14.01,2013-01-09 13:57:00,
2013-01-09 09:00:00,60.2,60.2,30.24,NW,326,0.0,0.0,100,0.00,,---,0.00,VWS V14.01,2013-01-09 14:00:00,
2013-01-09 09:02:00,60.2,60.2,30.24,NW,326,0.0,0.0,100,0.00,,---,0.00,VWS V14.01,2013-01-09 14:02:00,
2013-01-09 09:07:00,60.2,60.2,30.24,NW,326,0.0,0.0,100,0.00,,---,0.00,VWS V14.01,2013-01-09 14:07:00,
2013-01-09 09:12:00,60.4,60.4,30.24,NW,326,0.0,0.0,100,0.00,,---,0.00,VWS V14.01,2013-01-09 14:12:00,
2013-01-09 09:17:00,60.5,60.5,30.25,NW,326,0.0,0.0,100,0.00,,---,0.00,VWS V14.01,2013-01-09 14:17:00,
2013-01-09 09:22:00,60.5,60.5,30.25,NW,326,0.0,0.0,100,0.00,,---,0.00,VWS V14.01,2013-01-09 14:22:00,
2013-01-09 09:27:00,60.7,60.7,30.25,NW,326,0.0,0.0,100,0.00,,---,0.00,VWS V14.01,2013-01-09 14:27:00,
2013-01-09 09:30:00,60.9,60.9,30.25,NW,326,0.0,0.0,100,0.00,,---,0.00,VWS V14.01,2013-01-09 14:30:00,
2013-01-09 09:32:00,61.0,61.0,30.25,NW,326,0.0,0.0,100,0.00,,---,0.00,VWS V14.01,2013-01-09 14:32:00,
2013-01-09 09:37:00,61.3,61.3,30.25,NW,326,0.0,0.0,100,0.00,,---,0.00,VWS V14.01,2013-01-09 14:37:00,
2013-01-09 09:42:00,61.6,61.6,30.25,NW,326,0.0,0.0,100,0.00,,---,0.00,VWS V14.01,2013-01-09 14:42:00,
2013-01-09 09:47:00,61.6,61.6,30.26,NW,326,0.0,0.0,100,0.00,,---,0.00,VWS V14.01,2013-01-09 14:47:00,
2013-01-09 09:52:00,61.8,61.8,30.26,NW,326,0.0,0.0,100,0.00,,---,0.00,VWS V14.01,2013-01-09 14:52:00,
2013-01-09 09:57:00,62.1,62.1,30.26,NW,326,0.0,0.0,100,0.00,,---,0.00,VWS V14.01,2013-01-09 14:57:00,
2013-01-09 10:00:00,62.3,62.3,30.26,NW,326,0.0,0.0,100,0.00,,---,0.00,VWS V14.01,2013-01-09 15:00:00,
2013-01-09 10:02:00,62.4,62.4,30.26,NW,326,0.0,0.0,100,0.00,,---,0.00,VWS V14.01,2013-01-09 15:02:00,
2013-01-09 10:07:00,62.7,62.7,30.26,NW,326,0.0,1.0,100,0.00,,---,0.00,VWS V14.01,2013-01-09 15:07:00,
2013-01-09 10:12:00,62.9,62.9,30.26,NW,326,0.0,1.0,100,0.00,,---,0.00,VWS V14.01,2013-01-09 15:12:00,
2013-01-09 10:17:00,63.1,63.1,30.26,NW,326,0.0,1.0,100,0.00,,---,0.00,VWS V14.01,2013-01-09 15:17:00,
2013-01-09 10:22:00,63.4,63.4,30.26,NW,326,0.0,1.0,100,0.00,,---,0.00,VWS V14.01,2013-01-09 15:22:00,
2013-01-09 10:27:00,63.7,63.7,30.26,NW,326,0.0,1.0,100,0.00,,---,0.00,VWS V14.01,2013-01-09 15:27:00,
2013-01-09 10:30:00,63.7,63.7,30.26,NW,326,0.0,1.0,100,0.00,,---,0.00,VWS V14.01,2013-01-09 15:30:00,
2013-01-09 10:32:00,63.9,63.9,30.26,NW,326,0.0,2.0,100,0.00,,---,0.00,VWS V14.01,2013-01-09 15:32:00,
2013-01-09 10:37:00,64.2,64.2,30.26,NW,326,0.0,2.0,100,0.00,,---,0.00,VWS V14.01,2013-01-09 15:37:00,
2013-01-09 10:42:00,64.5,64.5,30.26,NW,326,0.0,2.0,100,0.00,,---,0.00,VWS V14.01,2013-01-09 15:42:00,
2013-01-09 10:47:00,64.7,64.7,30.26,NW,326,0.0,2.0,100,0.00,,---,0.00,VWS V14.01,2013-01-09 15:47:00,
2013-01-09 10:52:00,65.0,65.0,30.26,NW,326,0.0,2.0,100,0.00,,---,0.00,VWS V14.01,2013-01-09 15:52:00,
2013-01-09 10:57:00,65.0,65.0,30.26,NW,326,0.0,2.0,100,0.00,,---,0.00,VWS V14.01,2013-01-09 15:57:00,
2013-01-09 11:00:00,65.2,65.2,30.25,NW,326,0.0,2.0,100,0.00,,---,0.00,VWS V14.01,2013-01-09 16:00:00,
2013-01-09 11:02:00,65.5,65.5,30.25,NW,326,0.0,0.0,100,0.00,,---,0.00,VWS V14.01,2013-01-09 16:02:00,
2013-01-09 11:07:00,65.8,65.8,30.25,NW,326,0.0,0.0,100,0.00,,---,0.00,VWS V14.01,2013-01-09 16:07:00,
2013-01-09 11:12:00,66.0,66.0,30.25,NW,326,0.0,0.0,100,0.00,,---,0.00,VWS V14.01,2013-01-09 16:12:00,
2013-01-09 11:17:00,66.3,66.3,30.25,NW,326,0.0,0.0,100,0.00,,---,0.00,VWS V14.01,2013-01-09 16:17:00,
2013-01-09 11:22:00,66.6,66.6,30.25,NW,326,0.0,1.0,100,0.00,,---,0.00,VWS V14.01,2013-01-09 16:22:00,
2013-01-09 11:27:00,66.8,66.8,30.25,NW,326,0.0,2.0,100,0.00,,---,0.00,VWS V14.01,2013-01-09 16:27:00,
2013-01-09 11:30:00,66.8,66.8,30.25,NW,326,0.0,2.0,100,0.00,,---,0.00,VWS V14.01,2013-01-09 16:30:00,
2013-01-09 11:32:00,66.9,66.9,30.25,NW,326,0.0,0.0,100,0.00,,---,0.00,VWS V14.01,2013-01-09 16:32:00,
2013-01-09 11:37:00,66.9,66.9,30.25,West,261,1.0,2.0,100,0.00,,---,0.00,VWS V14.01,2013-01-09 16:37:00,
2013-01-09 11:42:00,66.6,66.6,30.25,West,261,0.0,2.0,100,0.00,,---,0.00,VWS V14.01,2013-01-09 16:42:00,
2013-01-09 11:47:00,66.6,66.6,30.24,West,261,0.0,2.0,100,0.00,,---,0.00,VWS V14.01,2013-01-09 16:47:00,
2013-01-09 11:52:00,66.9,66.9,30.24,West,261,0.0,2.0,100,0.00,,---,0.00,VWS V14.01,2013-01-09 16:52:00,
2013-01-09 11:57:00,67.1,67.1,30.24,West,261,0.0,2.0,100,0.00,,---,0.00,VWS V14.01,2013-01-09 16:57:00,
2013-01-09 12:00:00,67.4,67.4,30.24,West,261,0.0,2.0,100,0.00,,---,0.00,VWS V14.01,2013-01-09 17:00:00,
2013-01-09 12:02:00,67.4,67.4,30.24,West,261,0.0,0.0,100,0.00,,---,0.00,VWS V14.01,2013-01-09 17:02:00,
2013-01-09 12:07:00,67.8,67.8,30.24,West,261,0.0,0.0,100,0.00,,---,0.00,VWS V14.01,2013-01-09 17:07:00,
2013-01-09 12:12:00,68.4,68.4,30.24,West,261,0.0,2.0,100,0.00,,---,0.00,VWS V14.01,2013-01-09 17:12:00,
2013-01-09 12:17:00,68.4,68.4,30.23,West,261,0.0,2.0,100,0.00,,---,0.00,VWS V14.01,2013-01-09 17:17:00,
2013-01-09 12:22:00,68.9,68.6,30.23,West,261,0.0,2.0,99,0.00,,---,0.00,VWS V14.01,2013-01-09 17:22:00,
2013-01-09 12:27:00,69.3,68.7,30.23,West,261,0.0,2.0,98,0.00,,---,0.00,VWS V14.01,2013-01-09 17:27:00,
2013-01-09 12:30:00,69.4,68.8,30.23,West,261,0.0,2.0,98,0.00,,---,0.00,VWS V14.01,2013-01-09 17:30:00,
2013-01-09 12:32:00,69.4,68.5,30.23,West,261,0.0,0.0,97,0.00,,---,0.00,VWS V14.01,2013-01-09 17:32:00,
2013-01-09 12:37:00,69.4,68.5,30.23,West,277,0.0,1.0,97,0.00,,---,0.00,VWS V14.01,2013-01-09 17:37:00,
2013-01-09 12:42:00,69.3,68.1,30.23,WNW,287,0.0,2.0,96,0.00,,---,0.00,VWS V14.01,2013-01-09 17:42:00,
2013-01-09 12:47:00,69.1,67.3,30.22,NNW,339,0.0,2.0,94,0.00,,---,0.00,VWS V14.01,2013-01-09 17:47:00,
2013-01-09 12:52:00,69.1,67.6,30.22,NNW,339,0.0,2.0,95,0.00,,---,0.00,VWS V14.01,2013-01-09 17:52:00,
2013-01-09 12:57:00,68.9,66.8,30.22,NNW,339,0.0,2.0,93,0.00,,---,0.00,VWS V14.01,2013-01-09 17:57:00,
2013-01-09 13:00:00,68.8,66.7,30.22,NNW,339,0.0,2.0,93,0.00,,---,0.00,VWS V14.01,2013-01-09 18:00:00,
2013-01-09 13:02:00,68.8,67.0,30.22,NNW,339,0.0,0.0,94,0.00,,---,0.00,VWS V14.01,2013-01-09 18:02:00,
2013-01-09 13:07:00,68.8,66.7,30.22,NNW,342,0.0,0.0,93,0.00,,---,0.00,VWS V14.01,2013-01-09 18:07:00,
2013-01-09 13:12:00,68.6,66.5,30.22,NNW,342,0.0,0.0,93,0.00,,---,0.00,VWS V14.01,2013-01-09 18:12:00,
2013-01-09 13:17:00,68.3,66.2,30.21,NNW,342,0.0,0.0,93,0.00,,---,0.00,VWS V14.01,2013-01-09 18:17:00,
2013-01-09 13:22:00,68.4,66.3,30.21,NNW,342,0.0,0.0,93,0.00,,---,0.00,VWS V14.01,2013-01-09 18:22:00,
2013-01-09 13:27:00,68.4,66.0,30.21,NNW,342,0.0,0.0,92,0.00,,---,0.00,VWS V14.01,2013-01-09 18:27:00,
2013-01-09 13:30:00,68.4,66.0,30.21,NNW,342,0.0,0.0,92,0.00,,---,0.00,VWS V14.01,2013-01-09 18:30:00,
2013-01-09 13:32:00,68.4,66.3,30.21,NNW,342,0.0,0.0,93,0.00,,---,0.00,VWS V14.01,2013-01-09 18:32:00,
2013-01-09 13:37:00,68.4,66.0,30.21,NE,54,0.0,1.0,92,0.00,,---,0.00,VWS V14.01,2013-01-09 18:37:00,
2013-01-09 13:41:00,68.3,65.6,30.21,North,0,0.0,2.0,91,0.00,,---,0.00,VWS V14.01,2013-01-09 18:41:00,
2013-01-09 13:44:00,67.9,65.2,30.21,North,0,0.0,2.0,91,0.00,,---,0.00,VWS V14.01,2013-01-09 18:44:00,
2013-01-09 13:48:00,67.9,65.5,30.21,NW,320,0.0,2.0,92,0.00,,---,0.00,VWS V14.01,2013-01-09 18:48:00,
2013-01-09 13:53:00,67.6,65.2,30.21,NNW,333,0.0,3.0,92,0.00,,---,0.00,VWS V14.01,2013-01-09 18:53:00,
2013-01-09 13:58:00,67.8,65.4,30.21,NNW,347,0.0,3.0,92,0.00,,---,0.00,VWS V14.01,2013-01-09 18:58:00,
2013-01-09 14:00:00,67.8,65.4,30.20,North,353,2.0,3.0,92,0.00,,---,0.00,VWS V14.01,2013-01-09 19:00:00,
2013-01-09 14:03:00,67.8,65.4,30.20,North,353,0.0,3.0,92,0.00,,---,0.00,VWS V14.01,2013-01-09 19:03:00,
2013-01-09 14:08:00,68.1,65.7,30.20,North,353,0.0,3.0,92,0.00,,---,0.00,VWS V14.01,2013-01-09 19:08:00,
2013-01-09 14:13:00,67.9,65.2,30.20,North,354,0.0,3.0,91,0.00,,---,0.00,VWS V14.01,2013-01-09 19:13:00,
2013-01-09 14:18:00,67.9,65.2,30.20,North,354,0.0,3.0,91,0.00,,---,0.00,VWS V14.01,2013-01-09 19:18:00,
2013-01-09 14:23:00,68.3,65.6,30.20,North,354,0.0,3.0,91,0.00,,---,0.00,VWS V14.01,2013-01-09 19:23:00,
2013-01-09 14:28:00,68.6,65.9,30.20,North,354,0.0,3.0,91,0.00,,---,0.00,VWS V14.01,2013-01-09 19:28:00,
2013-01-09 14:30:00,68.8,66.1,30.20,North,354,0.0,3.0,91,0.00,,---,0.00,VWS V14.01,2013-01-09 19:30:00,
2013-01-09 14:33:00,69.4,66.7,30.20,North,354,0.0,0.0,91,0.00,,---,0.00,VWS V14.01,2013-01-09 19:33:00,
2013-01-09 14:38:00,69.3,65.9,30.20,North,354,0.0,2.0,89,0.00,,---,0.00,VWS V14.01,2013-01-09 19:38:00,
2013-01-09 14:43:00,69.6,66.2,30.20,North,354,0.0,2.0,89,0.00,,---,0.00,VWS V14.01,2013-01-09 19:43:00,
2013-01-09 14:48:00,69.4,65.7,30.21,North,354,0.0,2.0,88,0.00,,---,0.00,VWS V14.01,2013-01-09 19:48:00,
2013-01-09 14:53:00,69.6,66.2,30.21,North,354,0.0,2.0,89,0.00,,---,0.00,VWS V14.01,2013-01-09 19:53:00,
2013-01-09 14:58:00,69.9,66.5,30.21,North,354,0.0,2.0,89,0.00,,---,0.00,VWS V14.01,2013-01-09 19:58:00,
2013-01-09 15:00:00,70.1,66.4,30.21,North,354,0.0,2.0,88,0.00,,---,0.00,VWS V14.01,2013-01-09 20:00:00,
2013-01-09 15:03:00,69.8,65.8,30.21,North,354,0.0,2.0,87,0.00,,---,0.00,VWS V14.01,2013-01-09 20:03:00,
2013-01-09 15:08:00,69.6,65.9,30.21,North,354,0.0,2.0,88,0.00,,---,0.00,VWS V14.01,2013-01-09 20:08:00,
2013-01-09 15:13:00,69.3,65.9,30.21,North,0,0.0,2.0,89,0.00,,---,0.00,VWS V14.01,2013-01-09 20:13:00,
2013-01-09 15:18:00,68.9,65.8,30.21,North,0,0.0,2.0,90,0.00,,---,0.00,VWS V14.01,2013-01-09 20:18:00,
2013-01-09 15:23:00,68.6,65.6,30.21,North,0,0.0,2.0,90,0.00,,---,0.00,VWS V14.01,2013-01-09 20:23:00,
2013-01-09 15:28:00,68.4,65.4,30.21,North,0,0.0,2.0,90,0.00,,---,0.00,VWS V14.01,2013-01-09 20:28:00,
2013-01-09 15:30:00,68.3,65.3,30.21,North,0,0.0,2.0,90,0.00,,---,0.00,VWS V14.01,2013-01-09 20:30:00,
2013-01-09 15:33:00,67.9,64.9,30.21,North,0,0.0,0.0,90,0.00,,---,0.00,VWS V14.01,2013-01-09 20:33:00,
2013-01-09 15:38:00,67.4,64.4,30.21,North,0,0.0,0.0,90,0.00,,---,0.00,VWS V14.01,2013-01-09 20:38:00,
2013-01-09 15:43:00,67.3,64.3,30.21,North,0,0.0,0.0,90,0.00,,---,0.00,VWS V14.01,2013-01-09 20:43:00,
2013-01-09 15:48:00,67.1,64.1,30.22,North,0,0.0,0.0,90,0.00,,---,0.00,VWS V14.01,2013-01-09 20:48:00,
2013-01-09 15:53:00,67.1,64.1,30.22,North,0,0.0,0.0,90,0.00,,---,0.00,VWS V14.01,2013-01-09 20:53:00,
2013-01-09 15:58:00,67.1,64.1,30.22,North,0,0.0,0.0,90,0.00,,---,0.00,VWS V14.01,2013-01-09 20:58:00,
2013-01-09 16:00:00,67.1,63.8,30.22,North,0,0.0,0.0,89,0.00,,---,0.00,VWS V14.01,2013-01-09 21:00:00,
2013-01-09 16:03:00,66.9,63.6,30.22,North,0,0.0,0.0,89,0.00,,---,0.00,VWS V14.01,2013-01-09 21:03:00,
2013-01-09 16:08:00,66.6,63.3,30.22,North,0,0.0,0.0,89,0.00,,---,0.00,VWS V14.01,2013-01-09 21:08:00,
2013-01-09 16:13:00,66.1,62.8,30.22,North,0,0.0,0.0,89,0.00,,---,0.00,VWS V14.01,2013-01-09 21:13:00,
2013-01-09 16:18:00,65.8,62.8,30.22,North,0,0.0,0.0,90,0.00,,---,0.00,VWS V14.01,2013-01-09 21:18:00,
2013-01-09 16:23:00,65.3,62.3,30.22,North,0,0.0,0.0,90,0.00,,---,0.00,VWS V14.01,2013-01-09 21:23:00,
2013-01-09 16:28:00,64.8,62.1,30.22,North,0,0.0,0.0,91,0.00,,---,0.00,VWS V14.01,2013-01-09 21:28:00,
2013-01-09 16:30:00,64.7,62.0,30.22,North,0,0.0,0.0,91,0.00,,---,0.00,VWS V14.01,2013-01-09 21:30:00,
2013-01-09 16:33:00,64.3,61.6,30.22,North,0,0.0,0.0,91,0.00,,---,0.00,VWS V14.01,2013-01-09 21:33:00,
2013-01-09 16:38:00,64.2,61.8,30.22,North,0,0.0,0.0,92,0.00,,---,0.00,VWS V14.01,2013-01-09 21:38:00,
2013-01-09 16:43:00,63.9,61.5,30.22,North,0,0.0,0.0,92,0.00,,---,0.00,VWS V14.01,2013-01-09 21:43:00,
2013-01-09 16:48:00,63.4,61.0,30.23,North,0,0.0,0.0,92,0.00,,---,0.00,VWS V14.01,2013-01-09 21:48:00,
2013-01-09 16:53:00,62.9,60.8,30.23,North,0,0.0,0.0,93,0.00,,---,0.00,VWS V14.01,2013-01-09 21:53:00,
2013-01-09 16:58:00,62.6,60.5,30.23,North,0,0.0,0.0,93,0.00,,---,0.00,VWS V14.01,2013-01-09 21:58:00,
2013-01-09 17:00:00,62.4,60.7,30.23,North,0,0.0,0.0,94,0.00,,---,0.00,VWS V14.01,2013-01-09 22:00:00,
2013-01-09 17:03:00,62.3,60.6,30.23,North,0,0.0,1.0,94,0.00,,---,0.00,VWS V14.01,2013-01-09 22:03:00,
2013-01-09 17:09:00,62.0,60.6,30.23,North,0,0.0,1.0,95,0.00,,---,0.00,VWS V14.01,2013-01-09 22:09:00,
2013-01-09 17:14:00,61.8,60.4,30.23,North,0,0.0,1.0,95,0.00,,---,0.00,VWS V14.01,2013-01-09 22:14:00,
2013-01-09 17:19:00,61.5,60.1,30.23,North,0,0.0,1.0,95,0.00,,---,0.00,VWS V14.01,2013-01-09 22:19:00,
2013-01-09 17:23:00,61.3,60.2,30.23,North,0,0.0,1.0,96,0.00,,---,0.00,VWS V14.01,2013-01-09 22:23:00,
2013-01-09 17:28:00,61.2,60.0,30.23,North,0,0.0,1.0,96,0.00,,---,0.00,VWS V14.01,2013-01-09 22:28:00,
2013-01-09 17:30:00,61.2,60.3,30.23,North,0,0.0,1.0,97,0.00,,---,0.00,VWS V14.01,2013-01-09 22:30:00,
2013-01-09 17:33:00,61.2,60.3,30.23,North,0,0.0,0.0,97,0.00,,---,0.00,VWS V14.01,2013-01-09 22:33:00,
2013-01-09 17:38:00,61.0,60.2,30.23,North,0,0.0,0.0,97,0.00,,---,0.00,VWS V14.01,2013-01-09 22:38:00,
2013-01-09 17:43:00,60.9,60.0,30.23,North,0,0.0,1.0,97,0.00,,---,0.00,VWS V14.01,2013-01-09 22:43:00,
2013-01-09 17:48:00,60.5,59.7,30.23,North,0,0.0,1.0,97,0.00,,---,0.00,VWS V14.01,2013-01-09 22:48:00,
2013-01-09 17:53:00,60.5,59.9,30.23,North,0,0.0,1.0,98,0.00,,---,0.00,VWS V14.01,2013-01-09 22:53:00,
2013-01-09 17:58:00,60.4,59.8,30.23,North,0,0.0,1.0,98,0.00,,---,0.00,VWS V14.01,2013-01-09 22:58:00,
2013-01-09 18:00:00,60.4,59.8,30.23,North,0,0.0,1.0,98,0.00,,---,0.00,VWS V14.01,2013-01-09 23:00:00,
2013-01-09 18:03:00,60.4,59.8,30.23,North,0,0.0,0.0,98,0.00,,---,0.00,VWS V14.01,2013-01-09 23:03:00,
2013-01-09 18:08:00,60.4,59.8,30.23,North,0,0.0,0.0,98,0.00,,---,0.00,VWS V14.01,2013-01-09 23:08:00,
2013-01-09 18:13:00,60.4,59.8,30.23,North,0,0.0,0.0,98,0.00,,---,0.00,VWS V14.01,2013-01-09 23:13:00,
2013-01-09 18:18:00,60.4,60.1,30.24,North,0,0.0,0.0,99,0.00,,---,0.00,VWS V14.01,2013-01-09 23:18:00,
2013-01-09 18:23:00,60.5,60.2,30.24,North,0,0.0,0.0,99,0.00,,---,0.00,VWS V14.01,2013-01-09 23:23:00,
2013-01-09 18:28:00,60.5,60.2,30.24,North,0,0.0,0.0,99,0.00,,---,0.00,VWS V14.01,2013-01-09 23:28:00,
2013-01-09 18:30:00,60.5,60.2,30.24,North,0,0.0,0.0,99,0.00,,---,0.00,VWS V14.01,2013-01-09 23:30:00,
2013-01-09 18:33:00,60.5,60.2,30.24,North,0,0.0,0.0,99,0.00,,---,0.00,VWS V14.01,2013-01-09 23:33:00,
2013-01-09 18:38:00,60.7,60.4,30.24,North,0,0.0,0.0,99,0.00,,---,0.00,VWS V14.01,2013-01-09 23:38:00,
2013-01-09 18:43:00,60.7,60.4,30.24,North,0,0.0,0.0,99,0.00,,---,0.00,VWS V14.01,2013-01-09 23:43:00,
2013-01-09 18:48:00,60.9,60.6,30.24,North,0,0.0,0.0,99,0.00,,---,0.00,VWS V14.01,2013-01-09 23:48:00,
2013-01-09 18:53:00,60.9,60.9,30.24,North,0,0.0,0.0,100,0.00,,---,0.00,VWS V14.01,2013-01-09 23:53:00,
2013-01-09 18:58:00,60.9,60.9,30.24,North,0,0.0,0.0,100,0.00,,---,0.00,VWS V14.01,2013-01-09 23:58:00,
2013-01-09 19:00:00,60.9,60.9,30.25,North,0,0.0,0.0,100,0.00,,---,0.00,VWS V14.01,2013-01-10 00:00:00,
2013-01-09 19:03:00,60.9,60.9,30.25,North,0,0.0,0.0,100,0.00,,---,0.00,VWS V14.01,2013-01-10 00:03:00,
2013-01-09 19:08:00,60.9,60.9,30.25,North,0,0.0,0.0,100,0.00,,---,0.00,VWS V14.01,2013-01-10 00:08:00,
2013-01-09 19:13:00,61.0,61.0,30.25,North,0,0.0,0.0,100,0.00,,---,0.00,VWS V14.01,2013-01-10 00:13:00,
2013-01-09 19:18:00,61.0,61.0,30.25,North,0,0.0,1.0,100,0.00,,---,0.00,VWS V14.01,2013-01-10 00:18:00,
2013-01-09 19:23:00,61.2,61.2,30.25,North,0,0.0,1.0,100,0.00,,---,0.00,VWS V14.01,2013-01-10 00:23:00,
2013-01-09 19:28:00,61.3,61.3,30.25,North,0,0.0,1.0,100,0.00,,---,0.00,VWS V14.01,2013-01-10 00:28:00,
2013-01-09 19:30:00,61.3,61.3,30.25,North,0,0.0,1.0,100,0.00,,---,0.00,VWS V14.01,2013-01-10 00:30:00,
2013-01-09 19:33:00,61.5,61.5,30.25,North,0,0.0,0.0,100,0.00,,---,0.00,VWS V14.01,2013-01-10 00:33:00,
2013-01-09 19:38:00,61.6,61.6,30.25,North,0,0.0,0.0,100,0.00,,---,0.00,VWS V14.01,2013-01-10 00:38:00,
2013-01-09 19:43:00,61.6,61.6,30.25,North,0,0.0,0.0,100,0.00,,---,0.00,VWS V14.01,2013-01-10 00:43:00,
2013-01-09 19:48:00,61.8,61.8,30.25,North,0,0.0,0.0,100,0.00,,---,0.00,VWS V14.01,2013-01-10 00:48:00,
2013-01-09 19:53:00,62.0,62.0,30.25,North,0,0.0,0.0,100,0.00,,---,0.00,VWS V14.01,2013-01-10 00:53:00,
2013-01-09 19:58:00,62.1,62.1,30.25,North,0,0.0,0.0,100,0.00,,---,0.00,VWS V14.01,2013-01-10 00:58:00,
2013-01-09 20:00:00,62.3,62.3,30.26,North,0,0.0,0.0,100,0.00,,---,0.00,VWS V14.01,2013-01-10 01:00:00,
2013-01-09 20:03:00,62.4,62.4,30.26,North,0,0.0,0.0,100,0.00,,---,0.00,VWS V14.01,2013-01-10 01:03:00,
2013-01-09 20:08:00,62.6,62.6,30.26,North,0,0.0,0.0,100,0.00,,---,0.00,VWS V14.01,2013-01-10 01:08:00,
2013-01-09 20:13:00,62.9,62.9,30.26,North,0,0.0,0.0,100,0.00,,---,0.00,VWS V14.01,2013-01-10 01:13:00,
2013-01-09 20:18:00,63.1,63.1,30.26,North,0,0.0,0.0,100,0.00,,---,0.00,VWS V14.01,2013-01-10 01:18:00,
2013-01-09 20:23:00,63.4,63.4,30.26,North,0,0.0,0.0,100,0.00,,---,0.00,VWS V14.01,2013-01-10 01:23:00,
2013-01-09 20:28:00,63.5,63.5,30.26,North,0,0.0,2.0,100,0.00,,---,0.00,VWS V14.01,2013-01-10 01:28:00,
2013-01-09 20:30:00,63.5,63.5,30.26,North,0,0.0,2.0,100,0.00,,---,0.00,VWS V14.01,2013-01-10 01:30:00,
2013-01-09 20:33:00,63.5,63.5,30.26,North,0,0.0,0.0,100,0.00,,---,0.00,VWS V14.01,2013-01-10 01:33:00,
2013-01-09 20:38:00,63.4,63.4,30.26,North,0,0.0,0.0,100,0.00,,---,0.00,VWS V14.01,2013-01-10 01:38:00,
2013-01-09 20:43:00,63.2,63.2,30.26,North,0,0.0,1.0,100,0.00,,---,0.00,VWS V14.01,2013-01-10 01:43:00,
2013-01-09 20:48:00,63.2,63.2,30.26,North,0,0.0,1.0,100,0.00,,---,0.00,VWS V14.01,2013-01-10 01:48:00,
2013-01-09 20:53:00,63.2,63.2,30.26,North,0,0.0,1.0,100,0.00,,---,0.00,VWS V14.01,2013-01-10 01:53:00,
2013-01-09 20:58:00,63.4,63.4,30.26,North,0,0.0,1.0,100,0.00,,---,0.00,VWS V14.01,2013-01-10 01:58:00,
2013-01-09 21:00:00,63.4,63.4,30.26,North,0,0.0,1.0,100,0.00,,---,0.00,VWS V14.01,2013-01-10 02:00:00,
2013-01-09 21:03:00,63.4,63.4,30.26,North,0,0.0,0.0,100,0.00,,---,0.00,VWS V14.01,2013-01-10 02:03:00,
2013-01-09 21:08:00,63.2,63.2,30.26,North,0,0.0,0.0,100,0.00,,---,0.00,VWS V14.01,2013-01-10 02:08:00,
2013-01-09 21:13:00,63.2,63.2,30.26,North,0,0.0,0.0,100,0.00,,---,0.00,VWS V14.01,2013-01-10 02:13:00,
2013-01-09 21:18:00,63.1,63.1,30.26,North,0,0.0,0.0,100,0.00,,---,0.00,VWS V14.01,2013-01-10 02:18:00,
2013-01-09 21:23:00,62.9,62.9,30.26,North,0,0.0,0.0,100,0.00,,---,0.00,VWS V14.01,2013-01-10 02:23:00,
2013-01-09 21:28:00,62.9,62.9,30.26,North,0,0.0,0.0,100,0.00,,---,0.00,VWS V14.01,2013-01-10 02:28:00,
2013-01-09 21:30:00,62.7,62.7,30.26,North,0,0.0,0.0,100,0.00,,---,0.00,VWS V14.01,2013-01-10 02:30:00,
2013-01-09 21:33:00,62.7,62.7,30.26,North,0,0.0,0.0,100,0.00,,---,0.00,VWS V14.01,2013-01-10 02:33:00,
2013-01-09 21:38:00,62.6,62.6,30.26,North,0,0.0,0.0,100,0.00,,---,0.00,VWS V14.01,2013-01-10 02:38:00,
2013-01-09 21:43:00,62.6,62.6,30.26,North,0,0.0,0.0,100,0.00,,---,0.00,VWS V14.01,2013-01-10 02:43:00,
2013-01-09 21:48:00,62.6,62.6,30.26,North,0,0.0,0.0,100,0.00,,---,0.00,VWS V14.01,2013-01-10 02:48:00,
2013-01-09 21:53:00,62.6,62.6,30.26,North,0,0.0,0.0,100,0.00,,---,0.00,VWS V14.01,2013-01-10 02:53:00,
2013-01-09 21:58:00,62.4,62.4,30.26,North,0,0.0,0.0,100,0.00,,---,0.00,VWS V14.01,2013-01-10 02:58:00,
2013-01-09 22:00:00,62.6,62.6,30.26,North,0,0.0,0.0,100,0.00,,---,0.00,VWS V14.01,2013-01-10 03:00:00,
2013-01-09 22:03:00,62.6,62.6,30.26,North,0,0.0,0.0,100,0.00,,---,0.00,VWS V14.01,2013-01-10 03:03:00,
2013-01-09 22:08:00,62.7,62.7,30.26,North,0,0.0,0.0,100,0.00,,---,0.00,VWS V14.01,2013-01-10 03:08:00,
2013-01-09 22:13:00,62.7,62.7,30.26,North,0,0.0,0.0,100,0.00,,---,0.00,VWS V14.01,2013-01-10 03:13:00,
2013-01-09 22:18:00,62.9,62.9,30.26,North,0,0.0,0.0,100,0.00,,---,0.00,VWS V14.01,2013-01-10 03:18:00,
2013-01-09 22:23:00,62.9,62.9,30.26,North,0,0.0,0.0,100,0.00,,---,0.00,VWS V14.01,2013-01-10 03:23:00,
2013-01-09 22:28:00,63.1,63.1,30.26,North,0,0.0,0.0,100,0.00,,---,0.00,VWS V14.01,2013-01-10 03:28:00,
2013-01-09 22:30:00,63.1,63.1,30.26,North,0,0.0,0.0,100,0.00,,---,0.00,VWS V14.01,2013-01-10 03:30:00,
2013-01-09 22:33:00,63.2,63.2,30.26,North,0,0.0,0.0,100,0.00,,---,0.00,VWS V14.01,2013-01-10 03:33:00,
2013-01-09 22:38:00,63.2,63.2,30.26,North,0,0.0,0.0,100,0.00,,---,0.00,VWS V14.01,2013-01-10 03:38:00,
2013-01-09 22:43:00,63.4,63.4,30.26,North,0,0.0,0.0,100,0.00,,---,0.00,VWS V14.01,2013-01-10 03:43:00,
2013-01-09 22:48:00,63.4,63.4,30.26,North,0,0.0,0.0,100,0.00,,---,0.00,VWS V14.01,2013-01-10 03:48:00,
2013-01-09 22:53:00,63.4,63.4,30.26,North,0,0.0,0.0,100,0.00,,---,0.00,VWS V14.01,2013-01-10 03:53:00,
2013-01-09 22:58:00,63.4,63.4,30.26,North,0,0.0,0.0,100,0.00,,---,0.00,VWS V14.01,2013-01-10 03:58:00,
2013-01-09 23:00:00,63.4,63.4,30.26,North,0,0.0,0.0,100,0.00,,---,0.00,VWS V14.01,2013-01-10 04:00:00,
2013-01-09 23:03:00,63.4,63.4,30.26,North,0,0.0,0.0,100,0.00,,---,0.00,VWS V14.01,2013-01-10 04:03:00,
2013-01-09 23:08:00,63.4,63.4,30.26,North,0,0.0,0.0,100,0.00,,---,0.00,VWS V14.01,2013-01-10 04:08:00,
2013-01-09 23:13:00,63.5,63.5,30.26,North,0,0.0,0.0,100,0.00,,---,0.00,VWS V14.01,2013-01-10 04:13:00,
2013-01-09 23:18:00,63.7,63.7,30.26,North,0,0.0,0.0,100,0.00,,---,0.00,VWS V14.01,2013-01-10 04:18:00,
2013-01-09 23:23:00,63.5,63.5,30.26,North,0,0.0,0.0,100,0.00,,---,0.00,VWS V14.01,2013-01-10 04:23:00,
2013-01-09 23:28:00,63.5,63.5,30.26,North,0,0.0,0.0,100,0.00,,---,0.00,VWS V14.01,2013-01-10 04:28:00,
2013-01-09 23:30:00,63.5,63.5,30.26,North,0,0.0,0.0,100,0.00,,---,0.00,VWS V14.01,2013-01-10 04:30:00,
2013-01-09 23:33:00,63.4,63.4,30.26,North,0,0.0,0.0,100,0.00,,---,0.00,VWS V14.01,2013-01-10 04:33:00,
2013-01-09 23:38:00,63.4,63.4,30.26,North,0,0.0,0.0,100,0.00,,---,0.00,VWS V14.01,2013-01-10 04:38:00,
2013-01-09 23:43:00,63.2,63.2,30.26,North,0,0.0,0.0,100,0.00,,---,0.00,VWS V14.01,2013-01-10 04:43:00,
2013-01-09 23:48:00,63.2,63.2,30.27,North,0,0.0,0.0,100,0.00,,---,0.00,VWS V14.01,2013-01-10 04:48:00,
2013-01-09 23:53:00,63.2,63.2,30.27,North,0,0.0,0.0,100,0.00,,---,0.00,VWS V14.01,2013-01-10 04:53:00,
2013-01-09 23:58:00,63.4,63.4,30.27,North,0,0.0,0.0,100,0.00,,---,0.00,VWS V14.01,2013-01-10 04:58:00,